createdAt,value
2024-05-09T00:00:30.418Z,95625.13
2024-05-09T00:03:02.849Z,95620.00
2024-05-09T00:05:29.944Z,95624.09
2024-05-09T00:07:56.936Z,95621.63
2024-05-09T00:10:32.652Z,95625.19
2024-05-09T00:13:02.753Z,95622.09
2024-05-09T00:15:29.680Z,95621.63
2024-05-09T00:17:56.713Z,95625.75
2024-05-09T00:20:28.614Z,95622.97
2024-05-09T00:23:03.311Z,95634.31
2024-05-09T00:25:30.274Z,95640.94
2024-05-09T00:27:57.194Z,95625.06
2024-05-09T00:30:31.685Z,95627.09
2024-05-09T00:33:02.330Z,95625.41
2024-05-09T00:35:29.664Z,95617.50
2024-05-09T00:37:56.788Z,95614.38
2024-05-09T00:40:34.723Z,95611.28
2024-05-09T00:43:05.863Z,95609.97
2024-05-09T00:45:32.829Z,95609.84
2024-05-09T00:47:59.944Z,95611.38
2024-05-09T00:50:35.341Z,95605.59
2024-05-09T00:53:04.029Z,95599.53
2024-05-09T00:55:30.983Z,95602.25
2024-05-09T00:57:57.890Z,95603.34
2024-05-09T01:00:31.611Z,95603.03
2024-05-09T01:03:05.343Z,95606.75
2024-05-09T01:05:32.753Z,95611.50
2024-05-09T01:07:59.804Z,95611.25
2024-05-09T01:10:33.672Z,95608.41
2024-05-09T01:13:02.229Z,95610.16
2024-05-09T01:15:29.153Z,95595.81
2024-05-09T01:17:56.500Z,95605.81
2024-05-09T01:20:32.230Z,95615.53
2024-05-09T01:23:07.393Z,95603.09
2024-05-09T01:25:34.519Z,95600.38
2024-05-09T01:28:01.416Z,95611.97
2024-05-09T01:30:34.329Z,95615.72
2024-05-09T01:33:04.042Z,95610.75
2024-05-09T01:35:31.402Z,95603.84
2024-05-09T01:37:58.470Z,95607.19
2024-05-09T01:40:35.402Z,95602.19
2024-05-09T01:43:05.509Z,95612.72
2024-05-09T01:45:32.426Z,95613.25
2024-05-09T01:47:59.609Z,95615.88
2024-05-09T01:50:37.382Z,95608.81
2024-05-09T01:53:07.892Z,95608.56
2024-05-09T01:55:34.899Z,95626.69
2024-05-09T01:58:01.818Z,95607.75
2024-05-09T02:00:34.630Z,95614.50
2024-05-09T02:03:06.856Z,95605.53
2024-05-09T02:05:34.071Z,95600.00
2024-05-09T02:08:01.082Z,95614.75
2024-05-09T02:10:32.642Z,95605.09
2024-05-09T02:13:00.333Z,95611.88
2024-05-09T02:15:27.306Z,95607.69
2024-05-09T02:17:54.483Z,95606.75
2024-05-09T02:22:51.468Z,95605.06
2024-05-09T02:25:18.418Z,95609.84
2024-05-09T02:27:45.368Z,95618.31
2024-05-09T02:30:18.640Z,95615.97
2024-05-09T02:32:53.107Z,95617.94
2024-05-09T02:35:20.303Z,95619.09
2024-05-09T02:37:47.329Z,95617.59
2024-05-09T02:40:15.156Z,95611.75
2024-05-09T02:42:48.356Z,95608.38
2024-05-09T02:45:15.279Z,95611.88
2024-05-09T02:47:42.317Z,95617.59
2024-05-09T02:50:13.261Z,95616.25
2024-05-09T02:52:43.051Z,95604.97
2024-05-09T02:55:10.031Z,95603.22
2024-05-09T02:57:36.971Z,95608.28
2024-05-09T03:00:05.980Z,95605.72
2024-05-09T03:02:33.315Z,95606.25
2024-05-09T03:05:00.302Z,95599.19
2024-05-09T03:07:27.227Z,95593.03
2024-05-09T03:09:54.159Z,95600.22
2024-05-09T03:12:21.127Z,95603.19
2024-05-09T03:14:48.102Z,95612.78
2024-05-09T03:17:15.082Z,95603.56
2024-05-09T03:19:42.028Z,95605.66
2024-05-09T03:22:08.967Z,95611.00
2024-05-09T03:24:35.871Z,95610.31
2024-05-09T03:27:02.791Z,95614.88
2024-05-09T03:29:29.791Z,95608.34
2024-05-09T03:31:56.844Z,95613.00
2024-05-09T03:34:23.862Z,95611.06
2024-05-09T03:36:50.826Z,95608.81
2024-05-09T03:39:17.751Z,95607.81
2024-05-09T03:41:44.671Z,95618.44
2024-05-09T03:44:11.632Z,95624.81
2024-05-09T03:46:38.617Z,95628.34
2024-05-09T03:49:05.623Z,95631.47
2024-05-09T03:51:32.635Z,95627.59
2024-05-09T03:53:59.565Z,95627.06
2024-05-09T03:56:26.672Z,95623.94
2024-05-09T03:58:53.716Z,95629.41
2024-05-09T04:01:20.843Z,95629.47
2024-05-09T04:03:47.899Z,95625.16
2024-05-09T04:06:14.927Z,95628.56
2024-05-09T04:08:41.867Z,95626.53
2024-05-09T04:11:08.914Z,95630.75
2024-05-09T04:13:35.910Z,95630.63
2024-05-09T04:16:02.818Z,95628.66
2024-05-09T04:18:29.841Z,95633.47
2024-05-09T04:20:56.899Z,95640.59
2024-05-09T04:23:23.895Z,95635.88
2024-05-09T04:25:50.851Z,95634.81
2024-05-09T04:28:17.821Z,95634.34
2024-05-09T04:30:44.746Z,95639.25
2024-05-09T04:33:13.547Z,95645.16
2024-05-09T04:35:41.542Z,95643.75
2024-05-09T04:38:08.532Z,95651.31
2024-05-09T04:40:37.127Z,95648.03
2024-05-09T04:43:04.736Z,95643.31
2024-05-09T04:45:31.665Z,95643.63
2024-05-09T04:47:58.972Z,95646.00
2024-05-09T04:50:35.209Z,95645.44
2024-05-09T04:53:05.494Z,95633.34
2024-05-09T04:55:32.752Z,95644.78
2024-05-09T04:57:59.668Z,95639.47
2024-05-09T05:00:34.670Z,95640.81
2024-05-09T05:03:04.277Z,95646.59
2024-05-09T05:05:31.455Z,95644.22
2024-05-09T05:07:58.499Z,95644.66
2024-05-09T05:10:29.726Z,95644.72
2024-05-09T05:13:02.537Z,95655.09
2024-05-09T05:15:29.480Z,95647.34
2024-05-09T05:17:56.753Z,95645.72
2024-05-09T05:20:30.943Z,95648.53
2024-05-09T05:23:00.712Z,95654.44
2024-05-09T05:25:27.823Z,95666.97
2024-05-09T05:27:54.759Z,95653.16
2024-05-09T05:30:28.673Z,95653.66
2024-05-09T05:32:59.839Z,95656.09
2024-05-09T05:35:27.287Z,95675.13
2024-05-09T05:37:54.357Z,95655.06
2024-05-09T05:40:28.346Z,95661.56
2024-05-09T05:43:02.455Z,95666.25
2024-05-09T05:45:29.383Z,95659.97
2024-05-09T05:47:56.647Z,95659.22
2024-05-09T05:50:28.174Z,95661.50
2024-05-09T05:53:02.387Z,95663.59
2024-05-09T05:55:29.330Z,95659.31
2024-05-09T05:57:56.242Z,95661.94
2024-05-09T06:00:29.857Z,95670.28
2024-05-09T06:03:04.423Z,95658.06
2024-05-09T06:05:31.727Z,95655.84
2024-05-09T06:07:58.832Z,95662.94
2024-05-09T06:10:30.261Z,95655.16
2024-05-09T06:13:04.294Z,95665.13
2024-05-09T06:15:31.243Z,95661.34
2024-05-09T06:17:58.450Z,95655.34
2024-05-09T06:20:34.614Z,95660.66
2024-05-09T06:23:04.290Z,95670.19
2024-05-09T06:25:31.316Z,95659.69
2024-05-09T06:27:58.254Z,95661.19
2024-05-09T06:30:30.768Z,95661.66
2024-05-09T06:33:05.160Z,95663.50
2024-05-09T06:35:32.548Z,95665.63
2024-05-09T06:37:59.634Z,95680.47
2024-05-09T06:40:35.929Z,95672.75
2024-05-09T06:43:05.662Z,95675.09
2024-05-09T06:45:32.649Z,95674.25
2024-05-09T06:47:59.901Z,95675.88
2024-05-09T06:50:31.112Z,95675.91
2024-05-09T06:53:02.723Z,95679.19
2024-05-09T06:55:29.782Z,95685.94
2024-05-09T06:57:56.758Z,95678.38
2024-05-09T07:00:30.733Z,95676.72
2024-05-09T07:03:05.992Z,95667.63
2024-05-09T07:05:33.230Z,95674.81
2024-05-09T07:08:00.392Z,95661.06
2024-05-09T07:10:33.045Z,95657.66
2024-05-09T07:13:02.306Z,95663.03
2024-05-09T07:15:29.235Z,95657.75
2024-05-09T07:17:56.426Z,95658.84
2024-05-09T07:20:32.114Z,95664.66
2024-05-09T07:23:01.798Z,95655.63
2024-05-09T07:25:28.976Z,95657.44
2024-05-09T07:27:55.973Z,95648.50
2024-05-09T07:30:27.825Z,95650.13
2024-05-09T07:33:00.628Z,95647.00
2024-05-09T07:35:27.975Z,95650.88
2024-05-09T07:37:55.064Z,95648.38
2024-05-09T07:40:31.588Z,95651.25
2024-05-09T07:43:02.457Z,95655.81
2024-05-09T07:45:45.670Z,95652.78
2024-05-09T07:49:45.430Z,95654.13
2024-05-09T07:53:40.896Z,95650.00
2024-05-09T07:56:12.245Z,95651.69
2024-05-09T07:58:39.510Z,95660.91
2024-05-09T08:01:06.813Z,95651.44
2024-05-09T08:03:34.333Z,95643.63
2024-05-09T08:06:01.452Z,95637.84
2024-05-09T08:08:28.399Z,95639.63
2024-05-09T08:10:55.383Z,95627.59
2024-05-09T08:13:22.429Z,95630.38
2024-05-09T08:15:49.625Z,95624.94
2024-05-09T08:18:16.644Z,95629.69
2024-05-09T08:20:43.658Z,95624.56
2024-05-09T08:23:10.615Z,95626.34
2024-05-09T08:25:37.536Z,95629.22
2024-05-09T08:28:04.571Z,95631.53
2024-05-09T08:30:36.780Z,95630.25
2024-05-09T08:33:05.634Z,95633.78
2024-05-09T08:35:33.228Z,95631.03
2024-05-09T08:38:00.330Z,95623.66
2024-05-09T08:40:33.705Z,95629.44
2024-05-09T08:43:03.255Z,95636.91
2024-05-09T08:45:30.418Z,95626.63
2024-05-09T08:47:57.525Z,95632.63
2024-05-09T08:50:32.202Z,95633.34
2024-05-09T08:53:05.211Z,95633.56
2024-05-09T08:55:32.200Z,95629.66
2024-05-09T08:57:59.213Z,95623.47
2024-05-09T09:00:34.111Z,95622.06
2024-05-09T09:03:04.105Z,95621.50
2024-05-09T09:05:31.436Z,95640.19
2024-05-09T09:07:58.645Z,95623.22
2024-05-09T09:10:31.761Z,95627.56
2024-05-09T09:13:00.012Z,95635.00
2024-05-09T09:15:27.021Z,95631.13
2024-05-09T09:17:54.108Z,95632.34
2024-05-09T09:20:26.428Z,95617.16
2024-05-09T09:23:00.452Z,95617.16
2024-05-09T09:25:27.360Z,95618.38
2024-05-09T09:27:54.351Z,95628.00
2024-05-09T09:30:34.419Z,95623.91
2024-05-09T09:33:04.682Z,95623.69
2024-05-09T09:35:31.809Z,95624.31
2024-05-09T09:37:58.734Z,95632.06
2024-05-09T09:40:31.669Z,95626.03
2024-05-09T09:43:00.145Z,95627.13
2024-05-09T09:45:27.196Z,95626.41
2024-05-09T09:47:54.339Z,95627.19
2024-05-09T09:50:27.697Z,95623.53
2024-05-09T09:53:00.712Z,95628.38
2024-05-09T09:55:27.669Z,95627.63
2024-05-09T09:57:54.672Z,95630.66
2024-05-09T10:00:27.119Z,95619.66
2024-05-09T10:02:59.195Z,95623.75
2024-05-09T10:05:26.472Z,95624.13
2024-05-09T10:07:53.684Z,95615.75
2024-05-09T10:10:27.082Z,95617.03
2024-05-09T10:12:58.610Z,95618.06
2024-05-09T10:15:25.579Z,95611.75
2024-05-09T10:17:52.551Z,95611.69
2024-05-09T10:20:22.189Z,95614.34
2024-05-09T10:22:54.637Z,95612.81
2024-05-09T10:25:21.717Z,95607.50
2024-05-09T10:27:48.777Z,95612.66
2024-05-09T10:30:21.661Z,95610.22
2024-05-09T10:32:56.489Z,95610.59
2024-05-09T10:35:23.517Z,95619.63
2024-05-09T10:37:50.424Z,95615.91
2024-05-09T10:40:23.246Z,95616.13
2024-05-09T10:42:55.754Z,95611.66
2024-05-09T10:45:22.664Z,95621.72
2024-05-09T10:47:49.693Z,95602.16
2024-05-09T10:50:22.625Z,95607.09
2024-05-09T10:52:55.540Z,95607.09
2024-05-09T10:55:22.521Z,95604.19
2024-05-09T10:57:49.645Z,95617.59
2024-05-09T11:00:26.989Z,95609.97
2024-05-09T11:02:57.420Z,95601.13
2024-05-09T11:05:24.595Z,95604.59
2024-05-09T11:07:51.581Z,95602.06
2024-05-09T11:10:27.095Z,95591.63
2024-05-09T11:12:58.751Z,95594.88
2024-05-09T11:15:25.684Z,95590.94
2024-05-09T11:17:52.769Z,95588.94
2024-05-09T11:20:26.717Z,95586.16
2024-05-09T11:22:56.664Z,95572.25
2024-05-09T11:25:23.623Z,95585.81
2024-05-09T11:27:50.639Z,95578.31
2024-05-09T11:30:24.255Z,95580.16
2024-05-09T11:32:57.055Z,95581.16
2024-05-09T11:35:24.055Z,95579.91
2024-05-09T11:37:51.000Z,95582.59
2024-05-09T11:40:25.210Z,95582.38
2024-05-09T11:42:55.448Z,95581.22
2024-05-09T11:45:22.403Z,95581.41
2024-05-09T11:47:49.539Z,95587.44
2024-05-09T11:50:26.675Z,95576.78
2024-05-09T11:52:57.108Z,95584.91
2024-05-09T11:55:27.422Z,95572.38
2024-05-09T11:57:55.364Z,95581.31
2024-05-09T12:00:29.694Z,95589.09
2024-05-09T12:03:03.511Z,95577.09
2024-05-09T12:05:30.561Z,95582.16
2024-05-09T12:07:57.582Z,95565.53
2024-05-09T12:10:32.555Z,95562.63
2024-05-09T12:13:02.687Z,95566.28
2024-05-09T12:15:30.324Z,95565.91
2024-05-09T12:17:59.952Z,95561.44
2024-05-09T12:20:35.677Z,95551.63
2024-05-09T12:23:05.630Z,95551.94
2024-05-09T12:25:32.628Z,95546.56
2024-05-09T12:27:59.677Z,95535.34
2024-05-09T12:30:35.426Z,95542.47
2024-05-09T12:33:06.127Z,95546.59
2024-05-09T12:35:33.336Z,95536.22
2024-05-09T12:38:00.399Z,95540.06
2024-05-09T12:40:35.452Z,95536.22
2024-05-09T12:43:05.331Z,95539.38
2024-05-09T12:45:32.566Z,95543.28
2024-05-09T12:47:59.727Z,95534.53
2024-05-09T12:50:32.434Z,95527.09
2024-05-09T12:53:01.462Z,95524.00
2024-05-09T12:55:31.819Z,95536.72
2024-05-09T12:58:04.525Z,95532.06
2024-05-09T13:00:34.061Z,95536.88
2024-05-09T13:03:01.780Z,95531.44
2024-05-09T13:05:29.517Z,95521.75
2024-05-09T13:07:57.279Z,95514.19
2024-05-09T13:10:31.177Z,95519.97
2024-05-09T13:13:00.486Z,95512.69
2024-05-09T13:15:27.978Z,95517.28
2024-05-09T13:17:57.912Z,95522.19
2024-05-09T13:20:32.689Z,95516.50
2024-05-09T13:23:02.053Z,95515.06
2024-05-09T13:25:29.067Z,95514.81
2024-05-09T13:27:56.056Z,95520.44
2024-05-09T13:30:29.755Z,95515.94
2024-05-09T13:33:05.903Z,95511.94
2024-05-09T13:35:33.393Z,95528.19
2024-05-09T13:38:00.326Z,95516.09
2024-05-09T13:40:33.094Z,95512.06
2024-05-09T13:43:02.511Z,95504.66
2024-05-09T13:45:29.617Z,95507.72
2024-05-09T13:47:56.980Z,95497.47
2024-05-09T13:50:33.020Z,95499.94
2024-05-09T13:53:02.893Z,95494.66
2024-05-09T13:55:29.824Z,95495.66
2024-05-09T13:57:56.887Z,95491.31
2024-05-09T14:02:53.758Z,95494.00
2024-05-09T14:05:20.923Z,95491.72
2024-05-09T14:07:48.025Z,95494.53
2024-05-09T14:10:22.694Z,95489.44
2024-05-09T14:12:53.017Z,95506.47
2024-05-09T14:15:19.957Z,95490.16
2024-05-09T14:17:46.920Z,95488.19
2024-05-09T14:20:16.717Z,95488.41
2024-05-09T14:22:50.202Z,95481.78
2024-05-09T14:29:42.153Z,95488.13
2024-05-09T14:32:09.073Z,95481.53
2024-05-09T14:34:36.092Z,95485.44
2024-05-09T14:37:03.165Z,95485.22
2024-05-09T14:39:30.142Z,95473.03
2024-05-09T14:44:38.561Z,95488.78
2024-05-09T14:47:05.588Z,95476.59
2024-05-09T14:49:32.544Z,95486.44
2024-05-09T14:51:59.550Z,95480.47
2024-05-09T14:54:26.561Z,95479.13
2024-05-09T14:56:54.452Z,95471.59
2024-05-09T14:59:24.354Z,95481.22
2024-05-09T15:01:51.510Z,95477.50
2024-05-09T15:04:18.921Z,95473.28
2024-05-09T15:06:47.163Z,95466.88
2024-05-09T15:09:15.124Z,95472.03
2024-05-09T15:11:42.450Z,95467.22
2024-05-09T15:14:09.567Z,95487.00
2024-05-09T15:16:36.529Z,95463.63
2024-05-09T15:19:06.689Z,95466.69
2024-05-09T15:21:33.715Z,95458.81
2024-05-09T15:24:03.655Z,95470.34
2024-05-09T15:26:30.562Z,95464.66
2024-05-09T15:28:58.859Z,95463.16
2024-05-09T15:31:26.923Z,95461.53
2024-05-09T15:33:57.331Z,95461.78
2024-05-09T15:36:27.287Z,95460.16
2024-05-09T15:38:54.292Z,95462.28
2024-05-09T15:41:21.276Z,95464.69
2024-05-09T15:43:48.241Z,95456.72
2024-05-09T15:46:15.235Z,95449.31
2024-05-09T15:48:44.630Z,95454.66
2024-05-09T15:51:12.323Z,95448.59
2024-05-09T15:53:42.265Z,95453.22
2024-05-09T15:56:09.241Z,95457.22
2024-05-09T15:58:36.154Z,95465.13
2024-05-09T16:01:03.220Z,95451.56
2024-05-09T16:03:30.516Z,95453.16
2024-05-09T16:05:57.685Z,95457.22
2024-05-09T16:08:24.910Z,95448.31
2024-05-09T16:10:52.021Z,95440.34
2024-05-09T16:13:19.454Z,95440.13
2024-05-09T16:15:46.984Z,95435.59
2024-05-09T16:18:20.109Z,95433.25
2024-05-09T16:20:50.062Z,95439.25
2024-05-09T16:23:17.509Z,95421.28
2024-05-09T16:25:44.540Z,95439.75
2024-05-09T16:28:11.508Z,95438.03
2024-05-09T16:30:39.111Z,95446.19
2024-05-09T16:33:06.596Z,95430.72
2024-05-09T16:35:35.194Z,95428.06
2024-05-09T16:40:40.409Z,95435.47
2024-05-09T16:43:09.232Z,95435.91
2024-05-09T16:45:37.092Z,95435.66
2024-05-09T16:48:04.646Z,95425.88
2024-05-09T16:50:34.235Z,95424.19
2024-05-09T16:53:04.110Z,95434.53
2024-05-09T16:55:31.592Z,95426.22
2024-05-09T16:57:58.668Z,95422.03
2024-05-09T17:00:36.488Z,95429.75
2024-05-09T17:03:12.355Z,95423.47
2024-05-09T17:05:43.499Z,95426.28
2024-05-09T17:08:10.658Z,95429.25
2024-05-09T17:10:37.784Z,95430.53
2024-05-09T17:13:07.459Z,95425.34
2024-05-09T17:15:36.060Z,95431.91
2024-05-09T17:18:03.887Z,95427.94
2024-05-09T17:20:34.722Z,95428.25
2024-05-09T17:23:04.176Z,95429.63
2024-05-09T17:25:31.491Z,95430.28
2024-05-09T17:27:58.545Z,95425.16
2024-05-09T17:30:32.280Z,95428.50
2024-05-09T17:33:03.204Z,95434.75
2024-05-09T17:35:33.252Z,95433.63
2024-05-09T17:38:00.490Z,95430.09
2024-05-09T17:40:32.780Z,95425.19
2024-05-09T17:43:03.080Z,95431.31
2024-05-09T17:45:33.672Z,95436.97
2024-05-09T17:48:01.146Z,95428.63
2024-05-09T17:50:35.072Z,95424.78
2024-05-09T17:53:04.149Z,95426.09
2024-05-09T17:55:31.304Z,95423.44
2024-05-09T17:57:58.569Z,95430.59
2024-05-09T18:00:36.313Z,95418.38
2024-05-09T18:03:07.060Z,95433.00
2024-05-09T18:05:34.311Z,95438.66
2024-05-09T18:08:01.289Z,95436.41
2024-05-09T18:10:35.220Z,95436.28
2024-05-09T18:13:05.480Z,95439.13
2024-05-09T18:15:36.241Z,95439.59
2024-05-09T18:18:03.808Z,95439.25
2024-05-09T18:20:40.680Z,95435.06
2024-05-09T18:23:11.766Z,95433.47
2024-05-09T18:25:38.309Z,95438.56
2024-05-09T18:28:07.246Z,95437.22
2024-05-09T18:30:35.902Z,95444.94
2024-05-09T18:33:04.036Z,95433.44
2024-05-09T18:35:31.041Z,95440.94
2024-05-09T18:37:57.616Z,95441.03
2024-05-09T18:40:32.533Z,95432.78
2024-05-09T18:43:02.547Z,95437.81
2024-05-09T18:45:29.245Z,95434.22
2024-05-09T18:47:58.652Z,95433.66
2024-05-09T18:50:34.014Z,95425.13
2024-05-09T18:53:04.246Z,95438.66
2024-05-09T18:55:30.784Z,95433.25
2024-05-09T18:57:57.376Z,95440.81
2024-05-09T19:00:33.244Z,95439.84
2024-05-09T19:03:03.671Z,95437.44
2024-05-09T19:05:30.612Z,95436.28
2024-05-09T19:07:57.411Z,95447.47
2024-05-09T19:10:28.719Z,95449.47
2024-05-09T19:12:58.889Z,95449.00
2024-05-09T19:15:28.598Z,95452.91
2024-05-09T19:17:55.279Z,95456.06
2024-05-09T19:20:28.609Z,95458.88
2024-05-09T19:23:00.066Z,95456.41
2024-05-09T19:25:28.001Z,95458.78
2024-05-09T19:27:55.351Z,95455.03
2024-05-09T19:30:30.074Z,95452.84
2024-05-09T19:33:04.834Z,95459.06
2024-05-09T19:35:31.595Z,95464.38
2024-05-09T19:37:58.168Z,95456.50
2024-05-09T19:40:31.799Z,95472.03
2024-05-09T19:43:00.412Z,95464.16
2024-05-09T19:45:27.133Z,95469.00
2024-05-09T19:47:53.855Z,95466.34
2024-05-09T19:50:32.097Z,95469.56
2024-05-09T19:53:06.448Z,95468.91
2024-05-09T19:55:32.989Z,95478.50
2024-05-09T19:58:04.895Z,95473.81
2024-05-09T20:00:35.909Z,95469.19
2024-05-09T20:03:04.438Z,95474.28
2024-05-09T20:05:31.752Z,95474.59
2024-05-09T20:07:58.392Z,95464.78
2024-05-09T20:10:31.345Z,95471.28
2024-05-09T20:13:00.124Z,95476.66
2024-05-09T20:15:26.893Z,95473.38
2024-05-09T20:17:56.977Z,95475.94
2024-05-09T20:20:32.671Z,95475.75
2024-05-09T20:23:04.613Z,95477.47
2024-05-09T20:25:31.161Z,95477.53
2024-05-09T20:27:58.153Z,95482.78
2024-05-09T20:30:31.419Z,95483.44
2024-05-09T20:33:00.513Z,95482.97
2024-05-09T20:35:27.731Z,95498.13
2024-05-09T20:37:54.775Z,95487.66
2024-05-09T20:40:28.915Z,95486.84
2024-05-09T20:43:00.124Z,95495.44
2024-05-09T20:45:27.223Z,95485.78
2024-05-09T20:47:54.359Z,95484.31
2024-05-09T20:50:29.052Z,95488.03
2024-05-09T20:53:03.840Z,95486.25
2024-05-09T20:55:30.836Z,95480.22
2024-05-09T20:57:57.931Z,95482.09
2024-05-09T21:00:34.548Z,95479.78
2024-05-09T21:03:07.013Z,95474.59
2024-05-09T21:05:35.086Z,95481.44
2024-05-09T21:08:02.749Z,95480.03
2024-05-09T21:10:32.579Z,95478.44
2024-05-09T21:13:01.000Z,95473.84
2024-05-09T21:15:28.054Z,95470.97
2024-05-09T21:17:55.190Z,95463.31
2024-05-09T21:20:28.611Z,95470.03
2024-05-09T21:22:58.081Z,95464.03
2024-05-09T21:25:25.105Z,95466.97
2024-05-09T21:27:52.198Z,95465.22
2024-05-09T21:30:31.180Z,95469.09
2024-05-09T21:33:05.865Z,95470.91
2024-05-09T21:35:33.042Z,95464.22
2024-05-09T21:38:00.047Z,95467.63
2024-05-09T21:40:33.815Z,95461.69
2024-05-09T21:43:02.876Z,95462.19
2024-05-09T21:45:29.907Z,95458.97
2024-05-09T21:47:56.974Z,95457.88
2024-05-09T21:50:31.864Z,95457.56
2024-05-09T21:53:06.321Z,95463.75
2024-05-09T21:55:33.530Z,95468.59
2024-05-09T21:58:00.720Z,95464.09
2024-05-09T22:00:35.111Z,95470.47
2024-05-09T22:03:04.907Z,95473.91
2024-05-09T22:05:32.244Z,95473.38
2024-05-09T22:07:59.443Z,95468.00
2024-05-09T22:10:32.594Z,95469.28
2024-05-09T22:13:02.149Z,95469.13
2024-05-09T22:15:29.266Z,95475.06
2024-05-09T22:17:57.370Z,95465.72
2024-05-09T22:20:33.505Z,95467.75
2024-05-09T22:23:04.527Z,95472.84
2024-05-09T22:25:32.338Z,95465.44
2024-05-09T22:27:59.827Z,95469.38
2024-05-09T22:30:35.563Z,95470.56
2024-05-09T22:33:06.070Z,95468.44
2024-05-09T22:35:32.859Z,95471.34
2024-05-09T22:37:59.466Z,95477.41
2024-05-09T22:40:38.039Z,95479.13
2024-05-09T22:43:12.814Z,95485.91
2024-05-09T22:45:39.725Z,95479.66
2024-05-09T22:48:06.495Z,95470.84
2024-05-09T22:50:33.864Z,95482.66
2024-05-09T22:53:00.682Z,95481.44
2024-05-09T22:55:27.332Z,95485.38
2024-05-09T22:57:53.966Z,95482.38
2024-05-09T23:00:29.200Z,95484.69
2024-05-09T23:02:58.552Z,95479.72
2024-05-09T23:05:25.193Z,95479.19
2024-05-09T23:07:51.800Z,95478.41
2024-05-09T23:10:25.180Z,95479.56
2024-05-09T23:12:58.614Z,95477.03
2024-05-09T23:15:25.231Z,95480.88
2024-05-09T23:17:52.009Z,95479.31
2024-05-09T23:20:29.633Z,95484.78
2024-05-09T23:23:03.152Z,95484.88
2024-05-09T23:25:29.685Z,95473.50
2024-05-09T23:27:56.255Z,95472.72
2024-05-09T23:30:33.054Z,95482.03
2024-05-09T23:33:04.336Z,95477.72
2024-05-09T23:35:31.426Z,95476.34
2024-05-09T23:37:58.368Z,95478.50
2024-05-09T23:40:36.730Z,95476.75
2024-05-09T23:43:07.087Z,95478.41
2024-05-09T23:45:34.566Z,95473.50
2024-05-09T23:48:01.967Z,95467.66
2024-05-09T23:52:58.813Z,95477.41
2024-05-09T23:55:25.795Z,95472.00
2024-05-09T23:57:52.782Z,95477.25
